Time;durP1;ratioP1;P1;durP2;ratioP2;P2;SDS_P1;SDS_P2;PMS_P1;PMS_P2;Temp;Humidity;BMP_temperature;BMP_pressure;BME280_temperature;BME280_humidity;BME280_pressure;Samples;Min_cycle;Max_cycle;Signal;HPM_P1;HPM_P2
2023/06/23 00:00:28;;;;;;;7.22;3.38;;;17.90;99.90;;;;;;5050423;28;20013;-50
2023/06/23 00:02:53;;;;;;;5.03;3.28;;;17.90;99.90;;;;;;5050333;28;20477;-48
2023/06/23 00:05:20;;;;;;;7.60;3.75;;;17.90;99.90;;;;;;5049404;28;20036;-53
2023/06/23 00:07:46;;;;;;;9.43;3.92;;;17.90;99.90;;;;;;5048631;28;20112;-43
2023/06/23 00:10:13;;;;;;;6.10;3.78;;;17.90;99.90;;;;;;5049393;28;20056;-46
2023/06/23 00:12:42;;;;;;;6.03;3.83;;;17.80;99.90;;;;;;5050059;28;20020;-48
2023/06/23 00:15:09;;;;;;;10.40;4.00;;;17.80;99.90;;;;;;5049845;28;20108;-48
2023/06/23 00:17:36;;;;;;;7.05;3.80;;;17.80;99.90;;;;;;5049917;28;20048;-44
2023/06/23 00:20:10;;;;;;;5.97;3.83;;;17.80;99.90;;;;;;5047753;28;20108;-48
2023/06/23 00:22:36;;;;;;;9.70;3.78;;;17.80;99.90;;;;;;5049274;28;20104;-45
2023/06/23 00:25:03;;;;;;;8.32;3.92;;;17.80;99.90;;;;;;5049952;28;20036;-47
2023/06/23 00:27:28;;;;;;;9.32;4.22;;;17.80;99.90;;;;;;5050103;28;20052;-49
2023/06/23 00:29:54;;;;;;;6.00;3.70;;;17.80;99.90;;;;;;5050039;28;20484;-51
2023/06/23 00:32:20;;;;;;;10.50;3.65;;;17.80;99.90;;;;;;5049645;28;20021;-45
2023/06/23 00:34:46;;;;;;;6.68;3.75;;;17.70;99.90;;;;;;5049019;28;20112;-42
2023/06/23 00:37:11;;;;;;;7.82;4.10;;;17.70;99.90;;;;;;5052077;28;20027;-49
2023/06/23 00:39:37;;;;;;;6.20;3.45;;;17.70;99.90;;;;;;5048931;28;20053;-48
2023/06/23 00:42:06;;;;;;;8.48;4.13;;;17.70;99.90;;;;;;5050585;28;20441;-51
2023/06/23 00:44:33;;;;;;;5.88;3.85;;;17.60;99.90;;;;;;5045632;28;20485;-46
2023/06/23 00:47:00;;;;;;;9.77;3.90;;;17.60;99.90;;;;;;5049299;28;20023;-49
2023/06/23 00:49:26;;;;;;;6.38;4.05;;;17.50;99.90;;;;;;5049858;28;20351;-42
2023/06/23 00:51:53;;;;;;;5.93;4.07;;;17.50;99.90;;;;;;5050050;28;20091;-47
2023/06/23 00:54:18;;;;;;;7.45;4.03;;;17.50;99.90;;;;;;5048278;28;20044;-52
2023/06/23 00:56:44;;;;;;;6.53;4.15;;;17.50;99.90;;;;;;5048903;28;20032;-48
2023/06/23 00:59:10;;;;;;;5.38;3.25;;;17.50;99.90;;;;;;5048082;28;20021;-49
2023/06/23 01:01:36;;;;;;;5.72;3.30;;;17.50;99.90;;;;;;5049993;28;20035;-51
2023/06/23 01:04:02;;;;;;;8.40;3.65;;;17.50;99.90;;;;;;5048992;28;20025;-49
2023/06/23 01:06:37;;;;;;;7.88;3.30;;;17.40;99.90;;;;;;5048032;28;20025;-49
2023/06/23 01:09:28;;;;;;;5.43;3.42;;;17.30;99.90;;;;;;5045542;28;20017;-48
2023/06/23 01:12:06;;;;;;;6.15;3.83;;;17.30;99.90;;;;;;5050009;28;20036;-49
2023/06/23 01:14:39;;;;;;;5.40;3.57;;;17.20;99.90;;;;;;5048237;28;20040;-51
2023/06/23 01:17:19;;;;;;;8.25;3.92;;;17.10;99.90;;;;;;5048533;28;20056;-42
2023/06/23 01:19:44;;;;;;;5.15;3.47;;;17.00;99.90;;;;;;5047386;28;20385;-51
2023/06/23 01:22:27;;;;;;;6.40;3.33;;;17.00;99.90;;;;;;5047238;28;20017;-48
2023/06/23 01:25:01;;;;;;;5.68;3.33;;;16.90;99.90;;;;;;5048336;28;20090;-48
2023/06/23 01:27:39;;;;;;;16.05;4.25;;;16.90;99.90;;;;;;5048525;28;20040;-54
2023/06/23 01:30:10;;;;;;;5.55;3.35;;;16.80;99.90;;;;;;5045938;28;20112;-47
2023/06/23 01:32:45;;;;;;;5.78;3.63;;;16.70;99.90;;;;;;5049386;28;20064;-51
2023/06/23 01:35:20;;;;;;;7.85;3.13;;;16.60;99.90;;;;;;5049437;28;20039;-46
2023/06/23 01:37:50;;;;;;;5.93;3.42;;;16.50;99.90;;;;;;5047994;28;20098;-50
2023/06/23 01:40:21;;;;;;;6.93;3.70;;;16.50;99.90;;;;;;5048486;28;20103;-46
2023/06/23 01:43:00;;;;;;;8.35;3.95;;;16.40;99.90;;;;;;5048264;28;20032;-45
2023/06/23 01:45:29;;;;;;;6.10;3.40;;;16.30;99.90;;;;;;5046642;28;20029;-45
2023/06/23 01:48:01;;;;;;;5.53;3.57;;;16.30;99.90;;;;;;5049445;28;20013;-48
2023/06/23 01:50:28;;;;;;;9.65;3.60;;;16.30;99.90;;;;;;5047767;28;20027;-43
2023/06/23 01:52:56;;;;;;;6.10;3.95;;;16.20;99.90;;;;;;5047366;28;20025;-44
2023/06/23 01:55:23;;;;;;;7.32;3.97;;;16.20;99.90;;;;;;5048186;28;20132;-48
2023/06/23 01:57:51;;;;;;;7.10;3.53;;;16.20;99.90;;;;;;5047393;28;20454;-42
2023/06/23 02:00:21;;;;;;;7.85;3.88;;;16.20;99.90;;;;;;5046721;28;20098;-42
2023/06/23 02:02:49;;;;;;;7.15;3.70;;;16.20;99.90;;;;;;5046625;28;20036;-45
2023/06/23 02:05:17;;;;;;;8.43;3.60;;;16.20;99.90;;;;;;5046450;28;20103;-47
2023/06/23 02:07:47;;;;;;;5.85;3.58;;;16.20;99.90;;;;;;5045697;28;20311;-48
2023/06/23 02:10:14;;;;;;;5.60;3.20;;;16.30;99.90;;;;;;5047885;28;20505;-50
2023/06/23 02:12:43;;;;;;;7.78;3.38;;;16.20;99.90;;;;;;5047366;28;20059;-42
2023/06/23 02:15:10;;;;;;;9.95;3.90;;;16.20;99.90;;;;;;5042513;28;20351;-42
2023/06/23 02:17:37;;;;;;;9.15;3.80;;;16.10;99.90;;;;;;5050444;28;20028;-50
2023/06/23 02:20:13;;;;;;;7.35;3.90;;;16.10;99.90;;;;;;5049797;28;20056;-47
2023/06/23 02:22:40;;;;;;;6.03;3.28;;;16.10;99.90;;;;;;5050380;28;20032;-48
2023/06/23 02:25:06;;;;;;;7.15;3.47;;;16.10;99.90;;;;;;5049804;28;20060;-44
2023/06/23 02:27:32;;;;;;;7.30;3.45;;;16.10;99.90;;;;;;5043406;28;20071;-48
2023/06/23 02:29:58;;;;;;;11.45;3.78;;;16.10;99.90;;;;;;5042834;28;20499;-51
2023/06/23 02:32:25;;;;;;;5.90;3.13;;;16.10;99.90;;;;;;5043262;28;20028;-43
2023/06/23 02:34:51;;;;;;;6.75;3.33;;;16.10;99.90;;;;;;5050271;28;20076;-48
2023/06/23 02:37:23;;;;;;;4.97;3.22;;;16.10;99.90;;;;;;5050118;28;20052;-50
2023/06/23 02:39:54;;;;;;;7.03;3.55;;;16.10;99.90;;;;;;5050210;28;20366;-56
2023/06/23 02:42:23;;;;;;;5.00;3.13;;;16.10;99.90;;;;;;5050120;28;20066;-44
2023/06/23 02:44:58;;;;;;;5.27;3.30;;;16.10;99.90;;;;;;5050177;28;20056;-50
2023/06/23 02:47:25;;;;;;;5.80;3.13;;;16.00;99.90;;;;;;5049728;28;20032;-50
2023/06/23 02:49:56;;;;;;;7.45;3.10;;;16.00;99.90;;;;;;5050056;28;20021;-44
2023/06/23 02:52:25;;;;;;;5.05;3.35;;;16.00;99.90;;;;;;5049766;28;20021;-44
2023/06/23 02:54:53;;;;;;;5.17;3.10;;;15.90;99.90;;;;;;5050132;28;20029;-45
2023/06/23 02:57:21;;;;;;;5.57;3.40;;;15.90;99.90;;;;;;5049943;28;20029;-47
2023/06/23 02:59:49;;;;;;;7.28;3.65;;;15.90;99.90;;;;;;5050078;28;20029;-49
2023/06/23 03:02:16;;;;;;;4.68;2.85;;;15.90;99.90;;;;;;5050090;28;20055;-49
2023/06/23 03:04:44;;;;;;;7.65;3.17;;;15.90;99.90;;;;;;5049712;28;20068;-51
2023/06/23 03:07:10;;;;;;;4.30;2.75;;;15.90;99.90;;;;;;5050177;28;20021;-49
2023/06/23 03:09:36;;;;;;;5.13;2.83;;;15.90;99.90;;;;;;5049748;28;20021;-41
2023/06/23 03:12:02;;;;;;;5.03;2.92;;;15.90;99.90;;;;;;5048751;28;20470;-50
2023/06/23 03:14:28;;;;;;;5.22;3.00;;;15.90;99.90;;;;;;5051333;28;20083;-53
2023/06/23 03:17:11;;;;;;;6.32;3.08;;;15.90;99.90;;;;;;5053883;28;20048;-48
2023/06/23 03:19:45;;;;;;;7.28;3.20;;;15.80;99.90;;;;;;5053729;28;20025;-52
2023/06/23 03:22:14;;;;;;;5.40;3.17;;;15.80;99.90;;;;;;5053799;28;20021;-54
2023/06/23 03:24:42;;;;;;;5.90;3.30;;;15.80;99.90;;;;;;5053508;28;20033;-47
2023/06/23 03:27:10;;;;;;;7.00;3.08;;;15.80;99.90;;;;;;5053669;28;20076;-44
2023/06/23 03:29:43;;;;;;;4.75;3.05;;;15.80;99.90;;;;;;5053562;28;20036;-49
2023/06/23 03:32:14;;;;;;;4.93;2.60;;;15.80;99.90;;;;;;5053490;28;20051;-43
2023/06/23 03:34:47;;;;;;;4.90;2.72;;;15.70;99.90;;;;;;5053522;28;20486;-48
2023/06/23 03:37:17;;;;;;;4.80;2.90;;;15.70;99.90;;;;;;5053526;28;20036;-45
2023/06/23 03:39:50;;;;;;;5.53;2.78;;;15.70;99.90;;;;;;5053482;28;20104;-52
2023/06/23 03:42:16;;;;;;;5.30;2.75;;;15.70;99.90;;;;;;5053143;28;20403;-41
2023/06/23 03:44:47;;;;;;;4.63;2.92;;;15.70;99.90;;;;;;5053380;28;20458;-42
2023/06/23 03:47:19;;;;;;;5.28;3.17;;;15.60;99.90;;;;;;5053276;28;20036;-50
2023/06/23 03:49:58;;;;;;;6.25;2.70;;;15.60;99.90;;;;;;5053160;28;20087;-49
2023/06/23 03:52:26;;;;;;;4.38;2.65;;;15.50;99.90;;;;;;5052899;28;20017;-46
2023/06/23 03:54:53;;;;;;;4.35;2.90;;;15.50;99.90;;;;;;5052883;28;20052;-45
2023/06/23 03:57:23;;;;;;;4.90;3.20;;;15.50;99.90;;;;;;5052843;28;20082;-48
2023/06/23 03:59:50;;;;;;;6.03;3.30;;;15.40;99.90;;;;;;5053023;28;20025;-49
2023/06/23 04:02:20;;;;;;;5.65;2.90;;;15.40;99.90;;;;;;5052934;28;20052;-47
2023/06/23 04:04:48;;;;;;;4.68;2.90;;;15.40;99.90;;;;;;5052751;28;20119;-43
2023/06/23 04:07:15;;;;;;;4.30;2.60;;;15.40;99.90;;;;;;5052545;28;20020;-48
2023/06/23 04:09:49;;;;;;;5.38;3.33;;;15.30;99.90;;;;;;5051874;28;20029;-50
2023/06/23 04:12:17;;;;;;;5.88;2.60;;;15.30;99.90;;;;;;5052340;28;20029;-44
2023/06/23 04:14:47;;;;;;;7.05;2.97;;;15.30;99.90;;;;;;5052463;28;20053;-51
2023/06/23 04:17:13;;;;;;;;;;;15.40;99.90;;;;;;5052736;28;20039;-50
2023/06/23 04:19:42;;;;;;;7.43;2.75;;;15.40;99.90;;;;;;5032803;28;19909;-45
2023/06/23 04:22:09;;;;;;;5.80;2.87;;;15.40;99.90;;;;;;5037710;28;20079;-51
2023/06/23 04:24:37;;;;;;;4.75;2.72;;;15.50;99.90;;;;;;5048161;28;20269;-47
2023/06/23 04:27:05;;;;;;;5.38;2.67;;;15.60;99.90;;;;;;5034133;28;20026;-43
2023/06/23 04:29:33;;;;;;;5.78;3.00;;;15.60;99.90;;;;;;5038811;28;20032;-43
2023/06/23 04:32:00;;;;;;;5.22;2.95;;;15.70;99.90;;;;;;5037051;28;20047;-46
2023/06/23 04:34:25;;;;;;;4.22;2.65;;;15.70;99.90;;;;;;5051723;28;20033;-46
2023/06/23 04:36:58;;;;;;;4.05;2.40;;;15.80;99.90;;;;;;5049524;28;20028;-45
2023/06/23 04:39:28;;;;;;;5.32;2.60;;;15.70;99.90;;;;;;5049588;28;20028;-48
2023/06/23 04:42:02;;;;;;;7.15;3.00;;;15.60;99.90;;;;;;5046634;28;20477;-49
2023/06/23 04:44:32;;;;;;;5.25;3.20;;;15.60;99.90;;;;;;5049398;28;20024;-50
2023/06/23 04:47:01;;;;;;;8.10;3.03;;;15.60;99.90;;;;;;5046995;28;20025;-59
2023/06/23 04:49:29;;;;;;;;;;;15.70;99.90;;;;;;5038780;28;20036;-51
2023/06/23 04:51:58;;;;;;;3.58;2.00;;;15.70;99.90;;;;;;5048247;28;19951;-54
2023/06/23 04:54:38;;;;;;;4.20;2.67;;;15.80;99.90;;;;;;5043244;28;20079;-42
2023/06/23 04:57:07;;;;;;;4.80;2.97;;;16.00;99.90;;;;;;5036178;28;20033;-53
2023/06/23 04:59:37;;;;;;;4.68;2.67;;;16.30;99.90;;;;;;5041072;28;20027;-43
2023/06/23 05:02:04;;;;;;;4.43;2.70;;;16.50;99.90;;;;;;5031736;28;20092;-43
2023/06/23 05:04:34;;;;;;;4.50;3.00;;;16.80;99.90;;;;;;5031380;28;20021;-47
2023/06/23 05:07:01;;;;;;;4.72;2.92;;;17.00;99.90;;;;;;5032325;28;20108;-46
2023/06/23 05:09:28;;;;;;;4.55;2.90;;;17.20;99.90;;;;;;5031970;28;20017;-46
2023/06/23 05:11:56;;;;;;;5.78;2.90;;;17.40;99.90;;;;;;5032117;28;20040;-47
2023/06/23 05:14:25;;;;;;;7.55;3.20;;;17.60;99.90;;;;;;5032231;28;20498;-51
2023/06/23 05:16:52;;;;;;;6.43;3.35;;;17.60;99.90;;;;;;5030364;28;20039;-50
2023/06/23 05:19:20;;;;;;;3.85;2.35;;;17.70;99.90;;;;;;5030412;28;20022;-46
2023/06/23 05:21:46;;;;;;;3.42;2.33;;;17.80;99.90;;;;;;5030307;28;20043;-46
2023/06/23 05:24:15;;;;;;;4.32;2.25;;;17.70;99.90;;;;;;5041015;28;20043;-55
2023/06/23 05:26:41;;;;;;;4.75;2.58;;;17.70;99.90;;;;;;5049275;28;20025;-43
2023/06/23 05:29:09;;;;;;;8.95;2.75;;;17.70;99.90;;;;;;5049507;28;20029;-46
2023/06/23 05:31:38;;;;;;;4.97;2.58;;;17.60;99.90;;;;;;5050675;28;20029;-49
2023/06/23 05:34:07;;;;;;;4.95;2.63;;;17.70;99.90;;;;;;5051338;28;20083;-52
2023/06/23 05:36:34;;;;;;;4.38;2.67;;;17.70;99.90;;;;;;5051157;28;20049;-46
2023/06/23 05:39:02;;;;;;;4.75;2.80;;;17.90;99.90;;;;;;5051209;28;20071;-46
2023/06/23 05:41:28;;;;;;;7.55;3.25;;;18.00;99.90;;;;;;5051220;28;20017;-44
2023/06/23 05:43:54;;;;;;;5.05;3.00;;;18.10;99.90;;;;;;5051080;28;20032;-45
2023/06/23 05:46:23;;;;;;;7.25;3.97;;;18.20;99.90;;;;;;5051113;28;20037;-52
2023/06/23 05:48:51;;;;;;;;;;;18.20;99.90;;;;;;5051383;28;20017;-48
2023/06/23 05:51:22;;;;;;;6.15;3.67;;;18.20;99.90;;;;;;5050977;28;19990;-49
2023/06/23 05:53:53;;;;;;;7.35;3.83;;;18.30;99.90;;;;;;5050833;28;20021;-48
2023/06/23 05:56:32;;;;;;;5.43;3.50;;;18.80;99.90;;;;;;5050797;28;20489;-46
2023/06/23 05:59:02;;;;;;;7.60;3.27;;;19.40;99.90;;;;;;5050102;28;20025;-49
2023/06/23 06:01:30;;;;;;;5.55;3.05;;;20.00;99.90;;;;;;5049226;28;20175;-43
2023/06/23 06:04:06;;;;;;;4.97;3.10;;;20.50;99.90;;;;;;5050504;28;20045;-43
2023/06/23 06:06:35;;;;;;;23.23;3.30;;;20.90;99.90;;;;;;5050587;28;20363;-44
2023/06/23 06:09:03;;;;;;;5.20;3.08;;;21.10;99.90;;;;;;5050793;28;20025;-44
2023/06/23 06:11:30;;;;;;;9.55;3.58;;;21.00;99.90;;;;;;5050707;28;20051;-45
2023/06/23 06:13:58;;;;;;;5.50;3.13;;;21.00;99.90;;;;;;5050494;28;20136;-48
2023/06/23 06:16:25;;;;;;;4.78;3.15;;;21.10;99.90;;;;;;5050348;28;20098;-46
2023/06/23 06:18:53;;;;;;;6.60;3.35;;;21.40;99.90;;;;;;5050684;28;20116;-47
2023/06/23 06:21:20;;;;;;;5.57;3.10;;;21.70;99.90;;;;;;5050431;28;20032;-45
2023/06/23 06:23:49;;;;;;;5.03;3.22;;;22.10;99.90;;;;;;5050611;28;20017;-47
2023/06/23 06:26:17;;;;;;;6.45;3.30;;;22.40;99.90;;;;;;5050507;28;20025;-44
2023/06/23 06:28:45;;;;;;;6.50;3.20;;;22.30;99.90;;;;;;5050414;28;20025;-44
2023/06/23 06:31:11;;;;;;;5.47;3.42;;;22.20;99.90;;;;;;5050361;28;20473;-50
2023/06/23 06:33:39;;;;;;;5.03;2.95;;;22.30;99.90;;;;;;5049044;28;20490;-49
2023/06/23 06:36:07;;;;;;;4.03;2.60;;;22.40;99.90;;;;;;5049299;28;20089;-52
2023/06/23 06:38:35;;;;;;;5.00;2.80;;;22.30;99.90;;;;;;5048389;28;20025;-53
2023/06/23 06:41:06;;;;;;;5.78;2.95;;;22.20;99.90;;;;;;5049477;28;20478;-50
2023/06/23 06:43:32;;;;;;;4.82;2.92;;;22.10;99.90;;;;;;5048215;28;20025;-49
2023/06/23 06:46:00;;;;;;;5.78;2.90;;;22.20;99.90;;;;;;5042169;28;20037;-47
2023/06/23 06:48:27;;;;;;;4.15;2.75;;;22.50;99.90;;;;;;5043593;28;20096;-51
2023/06/23 06:50:57;;;;;;;7.60;3.33;;;22.60;99.90;;;;;;5053152;28;20119;-44
2023/06/23 06:53:23;;;;;;;6.13;3.55;;;22.50;99.90;;;;;;5053337;28;20029;-46
2023/06/23 06:55:49;;;;;;;6.10;3.30;;;22.50;99.90;;;;;;5051904;28;20037;-55
2023/06/23 06:58:16;;;;;;;5.97;3.13;;;22.50;99.90;;;;;;5053584;28;20021;-48
2023/06/23 07:00:43;;;;;;;5.57;3.22;;;22.70;99.90;;;;;;5052278;28;20021;-46
2023/06/23 07:03:15;;;;;;;6.25;3.30;;;22.70;99.90;;;;;;5053353;28;20032;-44
2023/06/23 07:05:41;;;;;;;11.00;3.00;;;22.80;99.90;;;;;;5052087;28;20486;-47
2023/06/23 07:08:07;;;;;;;5.35;3.00;;;22.80;99.90;;;;;;5053039;28;20025;-48
2023/06/23 07:10:34;;;;;;;6.30;3.28;;;23.00;99.90;;;;;;5052364;28;20366;-55
2023/06/23 07:13:00;;;;;;;5.97;3.00;;;23.20;99.90;;;;;;5052638;28;20394;-49
2023/06/23 07:15:26;;;;;;;6.82;2.80;;;23.20;99.90;;;;;;5052923;28;20040;-48
2023/06/23 07:17:52;;;;;;;5.57;3.03;;;23.10;99.90;;;;;;5051903;28;20017;-54
2023/06/23 07:20:17;;;;;;;6.20;2.80;;;23.10;99.90;;;;;;5053020;28;20047;-52
2023/06/23 07:22:44;;;;;;;6.32;3.05;;;23.20;99.90;;;;;;5051756;28;20032;-44
2023/06/23 07:25:09;;;;;;;4.55;2.65;;;23.30;99.90;;;;;;5053769;28;20021;-45
2023/06/23 07:27:35;;;;;;;5.72;2.97;;;23.30;99.90;;;;;;5053633;28;20086;-43
2023/06/23 07:30:01;;;;;;;4.38;2.78;;;23.40;99.90;;;;;;5053597;28;20021;-44
2023/06/23 07:32:27;;;;;;;9.10;2.85;;;23.40;99.90;;;;;;5053291;28;20502;-44
2023/06/23 07:34:53;;;;;;;5.45;2.90;;;23.30;99.90;;;;;;5040525;28;20500;-45
2023/06/23 07:37:18;;;;;;;5.13;2.70;;;23.20;99.90;;;;;;5036729;28;20481;-48
2023/06/23 07:39:44;;;;;;;3.65;2.40;;;23.40;99.90;;;;;;5037886;28;20083;-44
2023/06/23 07:42:10;;;;;;;4.82;2.90;;;23.60;99.90;;;;;;5037131;28;20406;-44
2023/06/23 07:44:36;;;;;;;6.18;2.70;;;23.80;99.90;;;;;;5036327;28;20033;-44
2023/06/23 07:47:03;;;;;;;3.95;2.30;;;24.10;99.90;;;;;;5036081;28;20164;-44
2023/06/23 07:49:29;;;;;;;5.25;2.80;;;24.30;99.90;;;;;;5040671;28;20035;-41
2023/06/23 07:51:59;;;;;;;7.55;3.00;;;24.50;99.90;;;;;;5042225;28;20035;-43
2023/06/23 07:54:29;;;;;;;4.93;2.75;;;24.40;99.90;;;;;;5044541;28;20029;-40
2023/06/23 07:56:55;;;;;;;4.38;2.80;;;24.50;99.90;;;;;;5047060;28;20041;-37
2023/06/23 07:59:21;;;;;;;3.97;2.50;;;24.50;99.90;;;;;;5073803;28;20021;-41
2023/06/23 08:01:47;;;;;;;9.68;2.80;;;24.50;99.90;;;;;;5045641;28;20098;-46
2023/06/23 08:04:13;;;;;;;8.63;3.33;;;24.70;99.90;;;;;;5041407;28;20121;-43
2023/06/23 08:06:38;;;;;;;6.82;3.00;;;24.90;99.90;;;;;;5033764;28;20030;-53
2023/06/23 08:09:04;;;;;;;3.90;2.35;;;25.40;99.90;;;;;;5044371;28;20123;-49
2023/06/23 08:11:30;;;;;;;5.75;2.58;;;25.90;99.90;;;;;;5046929;28;20498;-49
2023/06/23 08:13:56;;;;;;;4.78;2.60;;;26.30;99.90;;;;;;5047425;28;20397;-49
2023/06/23 08:16:22;;;;;;;3.78;2.25;;;26.40;99.90;;;;;;5035427;28;20037;-47
2023/06/23 08:18:47;;;;;;;4.07;2.53;;;26.70;99.90;;;;;;5036944;28;20018;-43
2023/06/23 08:21:13;;;;;;;4.97;2.50;;;27.00;99.90;;;;;;5036914;28;20028;-49
2023/06/23 08:23:40;;;;;;;4.13;2.45;;;27.20;99.90;;;;;;5041877;28;20059;-44
2023/06/23 08:26:05;;;;;;;4.53;2.70;;;27.50;99.90;;;;;;5052712;28;20501;-49
2023/06/23 08:28:31;;;;;;;3.45;2.30;;;27.70;99.90;;;;;;5052477;28;20078;-46
2023/06/23 08:30:57;;;;;;;4.10;2.38;;;27.80;99.90;;;;;;5052367;28;20400;-52
2023/06/23 08:33:23;;;;;;;6.38;2.53;;;27.70;99.90;;;;;;5050182;28;20025;-48
2023/06/23 08:35:49;;;;;;;4.85;2.58;;;27.90;99.90;;;;;;5051655;28;20084;-46
2023/06/23 08:38:16;;;;;;;6.00;2.50;;;28.10;99.90;;;;;;5051078;28;20029;-44
2023/06/23 08:40:41;;;;;;;3.53;2.20;;;28.20;99.90;;;;;;5051837;28;20112;-50
2023/06/23 08:43:11;;;;;;;6.25;2.42;;;28.00;99.90;;;;;;5051820;28;20151;-52
2023/06/23 08:45:41;;;;;;;4.07;2.60;;;27.90;99.90;;;;;;5051091;28;20051;-44
2023/06/23 08:48:07;;;;;;;4.90;2.50;;;28.00;99.90;;;;;;5051501;28;20111;-43
2023/06/23 08:50:35;;;;;;;5.05;2.80;;;27.90;99.90;;;;;;5050805;28;20102;-46
2023/06/23 08:53:01;;;;;;;6.05;2.80;;;28.00;99.90;;;;;;5051716;28;20043;-54
2023/06/23 08:55:27;;;;;;;5.10;2.60;;;28.10;99.90;;;;;;5050858;28;20076;-51
2023/06/23 08:57:53;;;;;;;5.18;2.70;;;28.20;99.90;;;;;;5051699;28;20025;-53
2023/06/23 09:00:19;;;;;;;4.20;2.53;;;28.30;99.90;;;;;;5050942;28;20036;-43
2023/06/23 09:02:45;;;;;;;3.53;2.55;;;28.40;99.90;;;;;;5037278;28;20495;-52
2023/06/23 09:05:11;;;;;;;7.15;3.97;;;28.40;99.90;;;;;;5047518;28;20036;-46
2023/06/23 09:07:37;;;;;;;4.78;2.60;;;28.40;99.90;;;;;;5037817;28;20041;-47
2023/06/23 09:10:03;;;;;;;4.15;2.35;;;28.60;99.90;;;;;;5045079;28;20024;-42
2023/06/23 09:12:29;;;;;;;5.13;2.35;;;29.10;99.90;;;;;;5043562;28;20047;-44
2023/06/23 09:14:57;;;;;;;4.25;2.40;;;29.60;99.90;;;;;;5045966;28;20044;-50
2023/06/23 09:17:23;;;;;;;5.53;2.30;;;29.60;99.90;;;;;;5042482;28;20048;-44
2023/06/23 09:19:50;;;;;;;7.18;2.88;;;29.60;99.90;;;;;;5037961;28;20030;-45
2023/06/23 09:22:22;;;;;;;3.40;2.10;;;29.60;99.90;;;;;;5041350;28;20089;-41
2023/06/23 09:24:49;;;;;;;5.60;2.45;;;29.30;99.90;;;;;;5048870;28;20614;-43
2023/06/23 09:27:15;;;;;;;3.67;1.98;;;29.10;99.90;;;;;;5037672;28;20024;-51
2023/06/23 09:29:41;;;;;;;3.17;2.13;;;29.10;99.90;;;;;;5046172;28;20021;-49
2023/06/23 09:32:09;;;;;;;4.03;2.20;;;28.90;99.90;;;;;;5041726;28;20032;-48
2023/06/23 09:34:37;;;;;;;4.47;2.20;;;28.80;99.90;;;;;;5046110;28;20449;-46
2023/06/23 09:37:08;;;;;;;3.70;2.15;;;28.40;99.90;;;;;;5036156;28;20037;-44
2023/06/23 09:39:38;;;;;;;3.90;2.42;;;28.20;99.90;;;;;;5044592;28;20343;-44
2023/06/23 09:42:11;;;;;;;4.20;2.58;;;27.90;99.90;;;;;;5036285;28;20068;-42
2023/06/23 09:44:40;;;;;;;4.85;2.30;;;27.80;99.90;;;;;;5035373;28;20022;-43
2023/06/23 09:47:06;;;;;;;3.50;2.30;;;27.70;99.90;;;;;;5037154;28;20021;-43
2023/06/23 09:49:42;;;;;;;4.53;2.35;;;27.60;99.90;;;;;;5034647;28;20022;-43
2023/06/23 09:52:12;;;;;;;3.67;2.40;;;27.50;99.90;;;;;;5034551;28;20063;-54
2023/06/23 09:54:39;;;;;;;5.97;2.28;;;27.40;99.90;;;;;;5034648;28;20037;-47
2023/06/23 09:57:07;;;;;;;4.57;2.08;;;27.30;99.90;;;;;;5038012;28;20470;-47
2023/06/23 09:59:36;;;;;;;5.07;2.80;;;27.20;99.90;;;;;;5035582;28;20086;-46
2023/06/23 10:02:02;;;;;;;;;;;27.10;99.90;;;;;;5048119;28;20025;-47
2023/06/23 10:04:31;;;;;;;4.60;2.42;;;27.20;99.90;;;;;;5047593;28;20308;-48
2023/06/23 10:06:58;;;;;;;5.15;2.53;;;27.20;99.90;;;;;;5042920;28;20013;-48
2023/06/23 10:09:25;;;;;;;3.97;2.10;;;27.10;99.90;;;;;;5044286;28;20025;-49
2023/06/23 10:11:51;;;;;;;3.78;2.38;;;27.30;99.90;;;;;;5037859;28;20109;-45
2023/06/23 10:14:18;;;;;;;5.95;2.10;;;27.40;99.90;;;;;;5043649;28;20052;-44
2023/06/23 10:16:44;;;;;;;4.22;2.55;;;27.60;99.90;;;;;;5032782;28;20030;-51
2023/06/23 10:19:11;;;;;;;4.40;2.28;;;27.70;99.90;;;;;;5045888;28;20112;-41
2023/06/23 10:21:39;;;;;;;3.72;2.30;;;27.80;99.90;;;;;;5031691;28;20026;-40
2023/06/23 10:24:11;;;;;;;3.80;2.22;;;27.80;99.90;;;;;;5043297;28;20078;-52
2023/06/23 10:26:37;;;;;;;4.20;2.20;;;28.00;99.90;;;;;;5077165;28;20517;-56
2023/06/23 10:29:06;;;;;;;4.45;2.30;;;28.10;99.90;;;;;;5032909;28;20021;-45
2023/06/23 10:31:34;;;;;;;7.45;1.75;;;28.10;99.90;;;;;;5032067;28;20540;-50
2023/06/23 10:34:04;;;;;;;2.17;1.48;;;28.20;99.90;;;;;;5039403;28;20018;-52
2023/06/23 10:36:31;;;;;;;2.67;1.60;;;28.30;99.90;;;;;;5044949;28;20037;-50
2023/06/23 10:39:00;;;;;;;2.83;1.73;;;28.20;99.90;;;;;;5041929;28;20052;-47
2023/06/23 10:41:27;;;;;;;2.38;1.60;;;28.20;99.90;;;;;;5045123;28;20060;-47
2023/06/23 10:43:56;;;;;;;3.92;1.60;;;28.10;99.90;;;;;;5042559;28;20025;-47
2023/06/23 10:46:23;;;;;;;3.33;1.70;;;28.00;99.90;;;;;;5045815;28;20039;-45
2023/06/23 10:48:49;;;;;;;3.33;1.60;;;27.90;99.90;;;;;;5043053;28;20496;-46
2023/06/23 10:51:16;;;;;;;2.95;1.73;;;28.00;99.90;;;;;;5032764;28;20032;-48
2023/06/23 10:53:50;;;;;;;4.07;1.60;;;28.10;99.90;;;;;;5035234;28;20021;-50
2023/06/23 10:56:34;;;;;;;2.97;1.75;;;28.20;99.90;;;;;;5039827;28;20036;-53
2023/06/23 10:59:16;;;;;;;1.80;1.30;;;28.30;99.90;;;;;;5044836;28;20469;-46
2023/06/23 11:01:59;;;;;;;3.47;1.55;;;28.40;99.90;;;;;;5049313;28;20163;-46
2023/06/23 11:04:27;;;;;;;2.72;1.73;;;28.70;99.90;;;;;;5036308;28;20021;-48
2023/06/23 11:07:10;;;;;;;4.40;2.10;;;29.00;99.90;;;;;;5049477;28;20509;-43
2023/06/23 11:09:55;;;;;;;3.20;2.00;;;29.50;99.90;;;;;;5039604;28;20021;-41
2023/06/23 11:12:37;;;;;;;3.55;1.90;;;29.70;99.90;;;;;;5042851;28;20090;-48
2023/06/23 11:15:24;;;;;;;3.08;2.00;;;29.40;99.90;;;;;;5042007;28;20049;-44
2023/06/23 11:18:00;;;;;;;5.65;2.15;;;29.20;99.90;;;;;;5042889;28;20020;-52
2023/06/23 11:20:25;;;;;;;3.90;2.10;;;29.40;99.90;;;;;;5042406;28;20446;-46
2023/06/23 11:23:05;;;;;;;3.97;2.50;;;29.50;99.90;;;;;;5038910;28;20029;-53
2023/06/23 11:25:37;;;;;;;4.40;2.38;;;29.60;99.90;;;;;;5037957;28;20028;-50
2023/06/23 11:28:24;;;;;;;4.05;2.30;;;29.40;99.90;;;;;;5049722;28;20017;-56
2023/06/23 11:31:11;;;;;;;3.13;1.80;;;29.40;99.90;;;;;;5049795;28;20051;-49
2023/06/23 11:33:38;;;;;;;3.63;2.10;;;29.60;99.90;;;;;;5049580;28;20036;-51
2023/06/23 11:36:07;;;;;;;2.65;1.90;;;29.80;99.90;;;;;;5052470;28;20041;-48
2023/06/23 11:38:34;;;;;;;5.03;2.90;;;29.80;99.90;;;;;;5053184;28;20017;-53
2023/06/23 11:41:01;;;;;;;2.90;1.88;;;29.80;99.90;;;;;;5053245;28;20035;-47
2023/06/23 11:43:33;;;;;;;3.75;1.90;;;29.90;99.90;;;;;;5053076;28;20108;-46
2023/06/23 11:46:04;;;;;;;3.38;2.03;;;29.80;99.90;;;;;;5053287;28;20029;-45
2023/06/23 11:48:29;;;;;;;3.70;2.20;;;29.60;99.90;;;;;;5053168;28;20057;-53
2023/06/23 11:50:57;;;;;;;6.00;2.20;;;29.40;99.90;;;;;;5052693;28;20056;-43
2023/06/23 11:53:23;;;;;;;2.45;1.67;;;29.10;99.90;;;;;;5044413;28;20516;-46
2023/06/23 11:55:50;;;;;;;2.70;1.75;;;29.20;99.90;;;;;;5038817;28;20044;-46
2023/06/23 11:58:16;;;;;;;3.17;2.05;;;29.30;99.90;;;;;;5041197;28;21592;-42
2023/06/23 12:00:42;;;;;;;3.08;1.88;;;29.50;99.90;;;;;;5040681;28;20486;-52
2023/06/23 12:03:15;;;;;;;3.75;2.80;;;29.60;99.90;;;;;;5038974;28;20029;-44
2023/06/23 12:05:41;;;;;;;4.40;2.22;;;29.40;99.90;;;;;;5041504;28;20029;-48
2023/06/23 12:08:07;;;;;;;8.65;2.20;;;29.20;99.90;;;;;;5038342;28;20024;-45
2023/06/23 12:10:43;;;;;;;3.83;1.95;;;29.10;99.90;;;;;;5036714;28;20018;-51
2023/06/23 12:13:13;;;;;;;3.63;2.13;;;28.70;99.90;;;;;;5043781;28;20076;-46
2023/06/23 12:15:40;;;;;;;3.33;1.98;;;28.40;99.90;;;;;;5046261;28;20075;-46
2023/06/23 12:18:06;;;;;;;2.67;1.88;;;28.50;99.90;;;;;;5047305;28;20108;-45
2023/06/23 12:20:35;;;;;;;3.78;2.00;;;28.20;99.90;;;;;;5049987;28;20025;-49
2023/06/23 12:23:06;;;;;;;4.32;2.08;;;28.00;99.90;;;;;;5048426;28;20043;-50
2023/06/23 12:25:33;;;;;;;3.80;1.90;;;28.00;99.90;;;;;;5052444;28;20052;-48
2023/06/23 12:28:01;;;;;;;2.80;2.00;;;28.10;99.90;;;;;;5051813;28;20013;-44
2023/06/23 12:30:27;;;;;;;3.17;1.90;;;28.40;99.90;;;;;;5043348;28;20044;-52
2023/06/23 12:32:59;;;;;;;3.42;2.20;;;28.40;99.90;;;;;;5034593;28;20474;-44
2023/06/23 12:35:29;;;;;;;6.35;2.10;;;28.10;99.90;;;;;;5034470;28;20033;-56
2023/06/23 12:37:55;;;;;;;4.68;2.00;;;27.90;99.90;;;;;;5034634;28;20048;-43
2023/06/23 12:40:31;;;;;;;3.03;1.90;;;27.80;99.90;;;;;;5035883;28;20068;-43
2023/06/23 12:42:58;;;;;;;2.60;1.83;;;27.80;99.90;;;;;;5038769;28;20037;-44
2023/06/23 12:45:24;;;;;;;3.80;2.17;;;27.90;99.90;;;;;;5036240;28;20224;-44
2023/06/23 12:47:56;;;;;;;3.58;1.95;;;28.10;99.90;;;;;;5033195;28;20026;-50
2023/06/23 12:50:26;;;;;;;4.03;2.35;;;28.30;99.90;;;;;;5034928;28;20061;-46
2023/06/23 12:52:53;;;;;;;3.83;2.47;;;28.10;99.90;;;;;;5033404;28;20053;-51
2023/06/23 12:55:18;;;;;;;3.65;1.88;;;28.10;99.90;;;;;;5037531;28;20034;-50